Darstellungsparameter: Aktuell verwendete Einstellungen:
Skalierung der Graphiken ... ?
xyx+y,   Skalierungsfaktor:      Skalierung: Modus: x, Faktor: 1
Darstellungszeitraum ... ?
Vom - - bis: - -   Zeitraum: 15.03.2020 - 15.03.2020
Min/Max/Avg-Anzeige ... ?
Zeige MMA aktuell
Zeige MMA Monat
Zeige MMA alles
Zeige --A aktuell
Zeige --A Monat
Zeige --A alles
Keine MMA-Anzeige
MMA:
Keine MMA-Graphiken
MMA-Basis: 15.03.2020 - 15.03.2020
Quicknavigation für Darstellung... ?
Tage:      1T, 2T, 3T, 5T -1T -2T -3T -5T +1T +2T +3T +5T
Wochen: 1W, 2W, 3W -1W -2W -3W +1W +2W +3W
Monate: 1M, 3M, 6M -1M -3M -6M +1M +3M +6M
Jahre:    1J, 3J, 5J, 10J -1J -3J -5J -10J +1J +3J +5J +10J
Nutze für die Darstellung ... ?
Originaldaten oder Mittelwerte auf ...
Stundenbasis Tagesbasis Wochenbasis
Monatsbasis Jahresbasis      Datenbasis: Original-Daten
Darstellen als:
Statistik (Auto) Statistik J:M      Darstellung:
Zur Graphik,    zurück zur Übersicht aller Sensoren.
 
Tabellarische Datenbersicht: ?
 
Sensor: Nr:Datum:Temp:Feuchte:Taupunkt:
Aussen-T/F 1 15-03-2020 00:00:00 6.2 C 87 % 4.2 C
2 15-03-2020 00:05:00 6.2 C 87 % 4.2 C
3 15-03-2020 00:10:00 6.3 C 86 % 4.14 C
4 15-03-2020 00:15:00 6.3 C 86 % 4.14 C
5 15-03-2020 00:20:00 6.3 C 86 % 4.14 C
6 15-03-2020 00:25:00 6.3 C 85 % 3.97 C
7 15-03-2020 00:30:00 6.3 C 84 % 3.8 C
8 15-03-2020 00:35:00 6.4 C 84 % 3.9 C
9 15-03-2020 00:40:00 6.4 C 85 % 4.07 C
10 15-03-2020 00:45:00 6.4 C 84 % 3.9 C
11 15-03-2020 00:50:00 6.4 C 84 % 3.9 C
12 15-03-2020 00:55:00 6.3 C 85 % 3.97 C
13 15-03-2020 01:00:00 6.2 C 84 % 3.7 C
14 15-03-2020 01:05:00 6.2 C 85 % 3.87 C
15 15-03-2020 01:10:00 6.1 C 85 % 3.77 C
16 15-03-2020 01:15:00 6.1 C 86 % 3.94 C
17 15-03-2020 01:20:00 6 C 86 % 3.84 C
18 15-03-2020 01:25:00 5.9 C 86 % 3.74 C
19 15-03-2020 01:30:00 5.8 C 86 % 3.64 C
20 15-03-2020 01:35:00 5.8 C 87 % 3.81 C
21 15-03-2020 01:40:00 5.8 C 87 % 3.81 C
22 15-03-2020 01:45:00 5.7 C 87 % 3.71 C
23 15-03-2020 01:50:00 5.7 C 87 % 3.71 C
24 15-03-2020 01:55:00 5.7 C 87 % 3.71 C
25 15-03-2020 02:00:00 5.6 C 87 % 3.61 C
Sensor: Nr:Datum:Temp:Feuchte:Taupunkt:
Aussen-T/F 26 15-03-2020 02:05:00 5.6 C 88 % 3.77 C
27 15-03-2020 02:10:00 5.6 C 88 % 3.77 C
28 15-03-2020 02:15:00 5.6 C 88 % 3.77 C
29 15-03-2020 02:20:00 5.6 C 88 % 3.77 C
30 15-03-2020 02:25:00 5.6 C 88 % 3.77 C
31 15-03-2020 02:30:00 5.6 C 88 % 3.77 C
32 15-03-2020 02:35:00 5.5 C 88 % 3.67 C
33 15-03-2020 02:40:00 5.4 C 88 % 3.58 C
34 15-03-2020 02:45:00 5.4 C 87 % 3.41 C
35 15-03-2020 02:50:00 5.3 C 88 % 3.48 C
36 15-03-2020 02:55:00 5.3 C 88 % 3.48 C
37 15-03-2020 03:00:00 5.3 C 88 % 3.48 C
38 15-03-2020 03:05:00 5.4 C 88 % 3.58 C
39 15-03-2020 03:10:00 5.3 C 88 % 3.48 C
40 15-03-2020 03:15:00 5.3 C 88 % 3.48 C
41 15-03-2020 03:20:00 5.2 C 87 % 3.22 C
42 15-03-2020 03:25:00 5.1 C 87 % 3.12 C
43 15-03-2020 03:30:00 4.9 C 87 % 2.92 C
44 15-03-2020 03:35:00 4.8 C 87 % 2.82 C
45 15-03-2020 03:40:00 4.7 C 87 % 2.73 C
46 15-03-2020 03:45:00 4.6 C 88 % 2.79 C
47 15-03-2020 03:50:00 4.5 C 88 % 2.69 C
48 15-03-2020 03:55:00 4.4 C 88 % 2.59 C
49 15-03-2020 04:00:00 4.4 C 89 % 2.75 C
50 15-03-2020 04:05:00 4.3 C 89 % 2.65 C
Sensor: Nr:Datum:Temp:Feuchte:Taupunkt:
Aussen-T/F 51 15-03-2020 04:10:00 4.3 C 89 % 2.65 C
52 15-03-2020 04:15:00 4.3 C 89 % 2.65 C
53 15-03-2020 04:20:00 4.3 C 89 % 2.65 C
54 15-03-2020 04:25:00 4.3 C 89 % 2.65 C
55 15-03-2020 04:30:00 4.3 C 89 % 2.65 C
56 15-03-2020 04:35:00 4.2 C 89 % 2.55 C
57 15-03-2020 04:40:00 4.2 C 89 % 2.55 C
58 15-03-2020 04:45:00 4.2 C 89 % 2.55 C
59 15-03-2020 04:50:00 4.2 C 89 % 2.55 C
60 15-03-2020 04:55:00 4.2 C 89 % 2.55 C
61 15-03-2020 05:00:00 4.2 C 89 % 2.55 C
62 15-03-2020 05:05:00 4.2 C 89 % 2.55 C
63 15-03-2020 05:10:00 4.1 C 89 % 2.45 C
64 15-03-2020 05:15:00 4.1 C 89 % 2.45 C
65 15-03-2020 05:20:00 4.1 C 89 % 2.45 C
66 15-03-2020 05:25:00 4.1 C 89 % 2.45 C
67 15-03-2020 05:30:00 4.1 C 89 % 2.45 C
68 15-03-2020 05:35:00 4 C 89 % 2.36 C
69 15-03-2020 05:40:00 4 C 89 % 2.36 C
70 15-03-2020 05:45:00 3.9 C 89 % 2.26 C
71 15-03-2020 05:50:00 3.9 C 89 % 2.26 C
72 15-03-2020 05:55:00 3.9 C 89 % 2.26 C
73 15-03-2020 06:00:00 3.9 C 89 % 2.26 C
74 15-03-2020 06:05:00 3.8 C 89 % 2.16 C
75 15-03-2020 06:10:00 3.8 C 89 % 2.16 C
Sensor: Nr:Datum:Temp:Feuchte:Taupunkt:
Aussen-T/F 76 15-03-2020 06:15:00 3.8 C 88 % 2 C
77 15-03-2020 06:20:00 3.7 C 89 % 2.06 C
78 15-03-2020 06:25:00 3.8 C 89 % 2.16 C
79 15-03-2020 06:30:00 3.7 C 89 % 2.06 C
80 15-03-2020 06:35:00 3.8 C 89 % 2.16 C
81 15-03-2020 06:40:00 4 C 88 % 2.2 C
82 15-03-2020 06:45:00 4.1 C 88 % 2.3 C
83 15-03-2020 06:50:00 4.1 C 88 % 2.3 C
84 15-03-2020 06:55:00 4.1 C 88 % 2.3 C
85 15-03-2020 07:00:00 4 C 88 % 2.2 C
86 15-03-2020 07:05:00 3.9 C 88 % 2.1 C
87 15-03-2020 07:10:00 3.8 C 88 % 2 C
88 15-03-2020 07:15:00 3.7 C 89 % 2.06 C
89 15-03-2020 07:20:00 3.7 C 89 % 2.06 C
90 15-03-2020 07:25:00 3.7 C 89 % 2.06 C
91 15-03-2020 07:30:00 3.6 C 90 % 2.12 C
92 15-03-2020 07:35:00 3.7 C 90 % 2.22 C
93 15-03-2020 07:40:00 3.8 C 90 % 2.31 C
94 15-03-2020 07:45:00 3.8 C 91 % 2.47 C
95 15-03-2020 07:50:00 3.9 C 91 % 2.57 C
96 15-03-2020 07:55:00 3.9 C 91 % 2.57 C
97 15-03-2020 08:00:00 4.1 C 91 % 2.77 C
98 15-03-2020 08:05:00 4.2 C 91 % 2.87 C
99 15-03-2020 08:10:00 4.3 C 91 % 2.96 C
100 15-03-2020 08:15:00 4.6 C 91 % 3.26 C
Sensor: Nr:Datum:Temp:Feuchte:Taupunkt:
Aussen-T/F 101 15-03-2020 08:20:00 4.7 C 91 % 3.36 C
102 15-03-2020 08:25:00 5 C 91 % 3.66 C
103 15-03-2020 08:30:00 5.2 C 91 % 3.85 C
104 15-03-2020 08:35:00 5.4 C 91 % 4.05 C
105 15-03-2020 08:40:00 5.6 C 89 % 3.93 C
106 15-03-2020 08:45:00 5.8 C 88 % 3.97 C
107 15-03-2020 08:50:00 5.9 C 88 % 4.07 C
108 15-03-2020 08:55:00 6.2 C 88 % 4.36 C
109 15-03-2020 09:00:00 6.4 C 88 % 4.56 C
110 15-03-2020 09:05:00 6.6 C 87 % 4.6 C
111 15-03-2020 09:10:00 6.7 C 86 % 4.53 C
112 15-03-2020 09:15:00 6.9 C 86 % 4.72 C
113 15-03-2020 09:20:00 7 C 86 % 4.82 C
114 15-03-2020 09:25:00 7.1 C 86 % 4.92 C
115 15-03-2020 09:30:00 7.2 C 85 % 4.85 C
116 15-03-2020 09:35:00 7.3 C 85 % 4.95 C
117 15-03-2020 09:40:00 7.5 C 84 % 4.98 C
118 15-03-2020 09:45:00 7.7 C 83 % 5 C
119 15-03-2020 09:50:00 8.1 C 80 % 4.86 C
120 15-03-2020 09:55:00 8.6 C 79 % 5.17 C
121 15-03-2020 10:00:00 9 C 76 % 5 C
122 15-03-2020 10:05:00 9.3 C 74 % 4.91 C
123 15-03-2020 10:10:00 9.5 C 73 % 4.91 C
124 15-03-2020 10:15:00 9.6 C 74 % 5.2 C
125 15-03-2020 10:20:00 9.7 C 74 % 5.3 C
Sensor: Nr:Datum:Temp:Feuchte:Taupunkt:
Aussen-T/F 126 15-03-2020 10:25:00 9.8 C 74 % 5.39 C
127 15-03-2020 10:30:00 10 C 74 % 5.59 C
128 15-03-2020 10:35:00 10.1 C 74 % 5.68 C
129 15-03-2020 10:40:00 10.3 C 70 % 5.08 C
130 15-03-2020 10:45:00 10.7 C 70 % 5.46 C
131 15-03-2020 10:50:00 11 C 67 % 5.12 C
132 15-03-2020 10:55:00 11.3 C 67 % 5.4 C
133 15-03-2020 11:00:00 11.6 C 66 % 5.47 C
134 15-03-2020 11:05:00 11.7 C 67 % 5.78 C
135 15-03-2020 11:10:00 12 C 63 % 5.18 C
136 15-03-2020 11:15:00 12.2 C 64 % 5.6 C
137 15-03-2020 11:20:00 12.6 C 61 % 5.29 C
138 15-03-2020 11:25:00 12.9 C 61 % 5.57 C
139 15-03-2020 11:30:00 13.1 C 59 % 5.28 C
140 15-03-2020 11:35:00 13.4 C 60 % 5.8 C
141 15-03-2020 11:40:00 13.7 C 59 % 5.84 C
142 15-03-2020 11:45:00 13.8 C 59 % 5.94 C
143 15-03-2020 11:50:00 13.9 C 57 % 5.53 C
144 15-03-2020 11:55:00 13.9 C 57 % 5.53 C
145 15-03-2020 12:00:00 13.8 C 57 % 5.44 C
146 15-03-2020 12:05:00 13.8 C 58 % 5.69 C
147 15-03-2020 12:10:00 13.8 C 56 % 5.19 C
148 15-03-2020 12:15:00 13.8 C 57 % 5.44 C
149 15-03-2020 12:20:00 13.7 C 56 % 5.09 C
150 15-03-2020 12:25:00 13.7 C 55 % 4.83 C
Sensor: Nr:Datum:Temp:Feuchte:Taupunkt:
Aussen-T/F 151 15-03-2020 12:30:00 13.9 C 57 % 5.53 C
152 15-03-2020 12:35:00 13.9 C 54 % 4.76 C
153 15-03-2020 12:40:00 14.1 C 56 % 5.46 C
154 15-03-2020 12:45:00 14.1 C 55 % 5.21 C
155 15-03-2020 12:50:00 14.1 C 56 % 5.46 C
156 15-03-2020 12:55:00 14.1 C 54 % 4.94 C
157 15-03-2020 13:00:00 14.1 C 54 % 4.94 C
158 15-03-2020 13:05:00 14.2 C 54 % 5.04 C
159 15-03-2020 13:10:00 14.3 C 55 % 5.39 C
160 15-03-2020 13:15:00 14.3 C 54 % 5.13 C
161 15-03-2020 13:20:00 14.6 C 54 % 5.41 C
162 15-03-2020 13:25:00 14.8 C 53 % 5.32 C
163 15-03-2020 13:30:00 15.2 C 54 % 5.96 C
164 15-03-2020 13:35:00 15.2 C 53 % 5.69 C
165 15-03-2020 13:40:00 15.1 C 51 % 5.05 C
166 15-03-2020 13:45:00 15.1 C 52 % 5.33 C
167 15-03-2020 13:50:00 15.3 C 51 % 5.23 C
168 15-03-2020 13:55:00 15.4 C 51 % 5.33 C
169 15-03-2020 14:00:00 15.4 C 51 % 5.33 C
170 15-03-2020 14:05:00 15.1 C 51 % 5.05 C
171 15-03-2020 14:10:00 15 C 52 % 5.24 C
172 15-03-2020 14:15:00 14.9 C 52 % 5.14 C
173 15-03-2020 14:20:00 15.1 C 51 % 5.05 C
174 15-03-2020 14:25:00 15.2 C 52 % 5.42 C
175 15-03-2020 14:30:00 15.2 C 52 % 5.42 C
Sensor: Nr:Datum:Temp:Feuchte:Taupunkt:
Aussen-T/F 176 15-03-2020 14:35:00 15.2 C 51 % 5.14 C
177 15-03-2020 14:40:00 15.2 C 52 % 5.42 C
178 15-03-2020 14:45:00 15.3 C 51 % 5.23 C
179 15-03-2020 14:50:00 15.4 C 50 % 5.04 C
180 15-03-2020 14:55:00 15.3 C 50 % 4.95 C
181 15-03-2020 15:00:00 15.3 C 50 % 4.95 C
182 15-03-2020 15:05:00 15.2 C 51 % 5.14 C
183 15-03-2020 15:10:00 15.3 C 51 % 5.23 C
184 15-03-2020 15:15:00 15.4 C 49 % 4.75 C
185 15-03-2020 15:20:00 15.6 C 50 % 5.23 C
186 15-03-2020 15:25:00 15.6 C 50 % 5.23 C
187 15-03-2020 15:30:00 15.8 C 49 % 5.12 C
188 15-03-2020 15:35:00 15.8 C 51 % 5.69 C
189 15-03-2020 15:40:00 15.8 C 49 % 5.12 C
190 15-03-2020 15:45:00 15.8 C 49 % 5.12 C
191 15-03-2020 15:50:00 15.9 C 47 % 4.61 C
192 15-03-2020 15:55:00 16 C 48 % 5.01 C
193 15-03-2020 16:00:00 16.1 C 48 % 5.1 C
194 15-03-2020 16:05:00 16 C 48 % 5.01 C
195 15-03-2020 16:10:00 16 C 48 % 5.01 C
196 15-03-2020 16:15:00 16.1 C 46 % 4.49 C
197 15-03-2020 16:20:00 16.1 C 48 % 5.1 C
198 15-03-2020 16:25:00 16.2 C 48 % 5.19 C
199 15-03-2020 16:30:00 16.4 C 48 % 5.37 C
200 15-03-2020 16:35:00 16.6 C 48 % 5.56 C
Sensor: Nr:Datum:Temp:Feuchte:Taupunkt:
Aussen-T/F 201 15-03-2020 16:40:00 16.7 C 46 % 5.04 C
202 15-03-2020 16:45:00 16.5 C 46 % 4.85 C
203 15-03-2020 16:50:00 16.4 C 47 % 5.07 C
204 15-03-2020 16:55:00 16.4 C 46 % 4.76 C
205 15-03-2020 17:00:00 16.4 C 47 % 5.07 C
206 15-03-2020 17:05:00 16.3 C 46 % 4.67 C
207 15-03-2020 17:10:00 16.2 C 47 % 4.89 C
208 15-03-2020 17:15:00 16.2 C 48 % 5.19 C
209 15-03-2020 17:20:00 16.3 C 48 % 5.28 C
210 15-03-2020 17:25:00 16.3 C 48 % 5.28 C
211 15-03-2020 17:30:00 16.4 C 47 % 5.07 C
212 15-03-2020 17:35:00 16.3 C 50 % 5.87 C
213 15-03-2020 17:40:00 16.1 C 53 % 6.53 C
214 15-03-2020 17:45:00 15.8 C 52 % 5.97 C
215 15-03-2020 17:50:00 15.4 C 55 % 6.42 C
216 15-03-2020 17:55:00 15.1 C 55 % 6.14 C
217 15-03-2020 18:00:00 14.6 C 57 % 6.19 C
218 15-03-2020 18:05:00 14.1 C 57 % 5.72 C
219 15-03-2020 18:10:00 13.6 C 59 % 5.75 C
220 15-03-2020 18:15:00 13.2 C 62 % 6.09 C
221 15-03-2020 18:20:00 12.8 C 64 % 6.17 C
222 15-03-2020 18:25:00 12.4 C 63 % 5.56 C
223 15-03-2020 18:30:00 12.1 C 65 % 5.73 C
224 15-03-2020 18:35:00 11.8 C 67 % 5.88 C
225 15-03-2020 18:40:00 11.4 C 67 % 5.5 C
Sensor: Nr:Datum:Temp:Feuchte:Taupunkt:
Aussen-T/F 226 15-03-2020 18:45:00 11.1 C 68 % 5.43 C
227 15-03-2020 18:50:00 10.7 C 69 % 5.25 C
228 15-03-2020 18:55:00 10.4 C 70 % 5.17 C
229 15-03-2020 19:00:00 10.2 C 70 % 4.98 C
230 15-03-2020 19:05:00 10 C 71 % 4.99 C
231 15-03-2020 19:10:00 9.8 C 72 % 5 C
232 15-03-2020 19:15:00 9.6 C 72 % 4.81 C
233 15-03-2020 19:20:00 9.4 C 73 % 4.81 C
234 15-03-2020 19:25:00 9.2 C 74 % 4.81 C
235 15-03-2020 19:30:00 9.1 C 74 % 4.72 C
236 15-03-2020 19:35:00 8.9 C 75 % 4.72 C
237 15-03-2020 19:40:00 8.8 C 75 % 4.62 C
238 15-03-2020 19:45:00 8.7 C 76 % 4.71 C
239 15-03-2020 19:50:00 8.6 C 76 % 4.62 C
240 15-03-2020 19:55:00 8.5 C 76 % 4.52 C
241 15-03-2020 20:00:00 8.4 C 77 % 4.61 C
242 15-03-2020 20:05:00 8.4 C 77 % 4.61 C
243 15-03-2020 20:10:00 8.3 C 77 % 4.51 C
244 15-03-2020 20:15:00 8.3 C 78 % 4.7 C
245 15-03-2020 20:20:00 8.2 C 78 % 4.6 C
246 15-03-2020 20:25:00 8.2 C 78 % 4.6 C
247 15-03-2020 20:30:00 8.1 C 78 % 4.5 C
248 15-03-2020 20:35:00 8.1 C 78 % 4.5 C
249 15-03-2020 20:40:00 8 C 78 % 4.41 C
250 15-03-2020 20:45:00 7.9 C 78 % 4.31 C
Sensor: Nr:Datum:Temp:Feuchte:Taupunkt:
Aussen-T/F 251 15-03-2020 20:50:00 7.8 C 78 % 4.21 C
252 15-03-2020 20:55:00 7.8 C 79 % 4.39 C
253 15-03-2020 21:00:00 7.7 C 79 % 4.3 C
254 15-03-2020 21:05:00 7.6 C 79 % 4.2 C
255 15-03-2020 21:10:00 7.5 C 80 % 4.28 C
256 15-03-2020 21:15:00 7.4 C 80 % 4.18 C
257 15-03-2020 21:20:00 7.3 C 81 % 4.26 C
258 15-03-2020 21:25:00 7.2 C 81 % 4.16 C
259 15-03-2020 21:30:00 7.2 C 81 % 4.16 C
260 15-03-2020 21:35:00 7.1 C 81 % 4.07 C
261 15-03-2020 21:40:00 7.1 C 81 % 4.07 C
262 15-03-2020 21:45:00 7.1 C 81 % 4.07 C
263 15-03-2020 21:50:00 7.1 C 81 % 4.07 C
264 15-03-2020 21:55:00 7.1 C 81 % 4.07 C
265 15-03-2020 22:00:00 6.9 C 81 % 3.87 C
266 15-03-2020 22:05:00 6.8 C 81 % 3.77 C
267 15-03-2020 22:10:00 6.7 C 81 % 3.68 C
268 15-03-2020 22:15:00 6.6 C 80 % 3.4 C
269 15-03-2020 22:20:00 6.4 C 81 % 3.38 C
270 15-03-2020 22:25:00 6.2 C 81 % 3.19 C
271 15-03-2020 22:30:00 6 C 82 % 3.17 C
272 15-03-2020 22:35:00 5.8 C 83 % 3.14 C
273 15-03-2020 22:40:00 5.7 C 84 % 3.21 C
274 15-03-2020 22:45:00 5.6 C 84 % 3.12 C
275 15-03-2020 22:50:00 5.6 C 84 % 3.12 C
Sensor: Nr:Datum:Temp:Feuchte:Taupunkt:
Aussen-T/F 276 15-03-2020 22:55:00 5.5 C 84 % 3.02 C
277 15-03-2020 23:00:00 5.4 C 85 % 3.09 C
278 15-03-2020 23:05:00 5.4 C 85 % 3.09 C
279 15-03-2020 23:10:00 5.4 C 86 % 3.25 C
280 15-03-2020 23:15:00 5.4 C 86 % 3.25 C
281 15-03-2020 23:20:00 5.4 C 87 % 3.41 C
282 15-03-2020 23:25:00 5.4 C 86 % 3.25 C
283 15-03-2020 23:30:00 5.3 C 86 % 3.15 C
284 15-03-2020 23:35:00 5.2 C 86 % 3.05 C
285 15-03-2020 23:40:00 5.2 C 86 % 3.05 C
286 15-03-2020 23:45:00 5.1 C 86 % 2.96 C
287 15-03-2020 23:50:00 5 C 86 % 2.86 C
288 15-03-2020 23:55:00 4.9 C 87 % 2.92 C

Legende:
   Min
   Max


Maximal/Minimal-Werte vom 15.03.2020 - 15.03.2020

Sensor Min Max Avg
Temp
(Aussen-T/F)
3.6 °C
15-03-2020  07:30:00
16.7 °C
15-03-2020  16:40:00
8.93 °C
Feuchte
(Aussen-T/F)
46 %
15-03-2020  16:15:00
91 %
15-03-2020  07:45:00
74.23 %
Taupunkt
(Aussen-T/F)
2 C
15-03-2020  06:15:00
6.53 C
15-03-2020  17:40:00
4.16 C

Die Daten stammen von einer Davis Vantage Pro 2 Wetter-Station und werden unter Linux mit der Software wview2wettercgi und aufbereitet. Alle Angaben erfolgen ohne Gewähr für ihre Vollständigkeit oder Richtigkeit.
Kontakt: Rainer Krienke krienke@uni-koblenz.de . Meine Webseiten an der Uni Koblenz oder privat.
Version: $Revision: 0.78 $